Time;durP1;ratioP1;P1;durP2;ratioP2;P2;SDS_P1;SDS_P2;PMS_P1;PMS_P2;Temp;Humidity;BMP_temperature;BMP_pressure;BME280_temperature;BME280_humidity;BME280_pressure;Samples;Min_cycle;Max_cycle;Signal;HPM_P1;HPM_P2
2022/06/18 00:00:53;;;;;;;8.35;2.42;;;22.70;71.70;;;;;;5067730;28;20024;-62
2022/06/18 00:03:19;;;;;;;6.32;2.75;;;22.50;72.30;;;;;;5069224;28;20114;-62
2022/06/18 00:05:48;;;;;;;4.25;2.22;;;22.40;72.60;;;;;;5067902;28;20025;-61
2022/06/18 00:08:22;;;;;;;5.82;1.83;;;22.30;72.30;;;;;;5067710;28;20019;-61
2022/06/18 00:13:39;;;;;;;3.90;1.80;;;22.40;71.90;;;;;;5067943;28;20032;-61
2022/06/18 00:13:42;;;;;;;4.05;1.60;;;22.40;71.80;;;;;;5065580;28;20036;-61
2022/06/18 00:16:13;;;;;;;5.35;1.75;;;22.40;71.70;;;;;;5066688;28;20021;-61
2022/06/18 00:18:39;;;;;;;5.05;1.77;;;22.40;72.00;;;;;;5068694;28;20036;-61
2022/06/18 00:21:07;;;;;;;5.30;1.80;;;22.40;71.90;;;;;;5066434;28;20039;-61
2022/06/18 00:23:33;;;;;;;3.80;1.63;;;22.40;72.10;;;;;;5066643;28;20412;-61
2022/06/18 00:25:58;;;;;;;4.90;2.00;;;22.40;71.90;;;;;;5062837;28;20509;-61
2022/06/18 00:28:27;;;;;;;5.80;1.80;;;22.40;71.80;;;;;;5068697;28;20028;-61
2022/06/18 00:30:54;;;;;;;2.65;1.80;;;22.40;71.60;;;;;;5066890;28;20024;-61
2022/06/18 00:33:21;;;;;;;5.40;2.08;;;22.40;72.30;;;;;;5066028;28;20028;-61
2022/06/18 00:35:48;;;;;;;9.02;2.00;;;22.40;72.10;;;;;;5067497;28;20032;-61
2022/06/18 00:38:21;;;;;;;6.82;2.92;;;22.40;72.60;;;;;;5065767;28;20476;-61
2022/06/18 00:40:47;;;;;;;6.43;2.35;;;22.30;73.00;;;;;;5067542;28;20396;-61
2022/06/18 00:43:35;;;;;;;6.28;2.17;;;22.20;73.60;;;;;;5064173;28;20017;-61
2022/06/18 00:46:26;;;;;;;3.85;2.47;;;22.10;73.80;;;;;;5063650;28;20036;-61
2022/06/18 00:49:04;;;;;;;3.85;2.45;;;22.00;74.70;;;;;;5066993;28;20047;-61
2022/06/18 00:51:54;;;;;;;8.48;2.80;;;21.80;75.60;;;;;;5072906;28;20024;-61
2022/06/18 00:54:24;;;;;;;7.10;3.08;;;21.60;76.30;;;;;;5068168;28;20456;-61
2022/06/18 00:57:00;;;;;;;7.50;2.45;;;21.50;77.20;;;;;;5066283;28;20439;-61
2022/06/18 00:59:41;;;;;;;4.78;2.60;;;21.40;77.90;;;;;;5065708;28;20021;-61
2022/06/18 01:02:18;;;;;;;8.27;2.65;;;21.30;78.30;;;;;;5065425;28;20068;-61
2022/06/18 01:04:44;;;;;;;4.35;2.50;;;21.10;79.10;;;;;;5064275;28;20492;-61
2022/06/18 01:07:38;;;;;;;10.05;3.08;;;21.10;79.40;;;;;;5068549;28;20027;-62
2022/06/18 01:10:12;;;;;;;7.45;2.35;;;21.10;79.40;;;;;;5061532;28;20462;-61
2022/06/18 01:12:38;;;;;;;5.32;2.97;;;21.10;79.20;;;;;;5066685;28;20024;-61
2022/06/18 01:15:07;;;;;;;6.63;2.80;;;21.10;79.20;;;;;;5067161;28;20028;-61
2022/06/18 01:17:35;;;;;;;4.95;3.10;;;21.10;79.40;;;;;;5063252;28;20029;-61
2022/06/18 01:20:04;;;;;;;5.72;3.13;;;21.10;79.90;;;;;;5067814;28;20039;-61
2022/06/18 01:22:59;;;;;;;3.38;2.45;;;21.00;80.30;;;;;;5066080;28;20021;-61
2022/06/18 01:25:27;;;;;;;5.05;2.40;;;21.00;80.20;;;;;;5066203;28;20563;-61
2022/06/18 01:27:54;;;;;;;3.50;2.88;;;20.90;80.60;;;;;;5065395;28;20021;-61
2022/06/18 01:30:22;;;;;;;3.95;2.80;;;20.90;80.90;;;;;;5068911;28;20465;-61
2022/06/18 01:32:51;;;;;;;8.55;3.75;;;20.90;81.10;;;;;;5066072;28;20119;-61
2022/06/18 01:35:18;;;;;;;6.65;3.53;;;20.80;81.40;;;;;;5066493;28;20060;-61
2022/06/18 01:37:45;;;;;;;12.90;3.33;;;20.80;81.80;;;;;;5064557;28;20029;-61
2022/06/18 01:40:15;;;;;;;10.82;3.33;;;20.80;82.10;;;;;;5079364;28;20024;-61
2022/06/18 01:42:45;;;;;;;5.70;3.90;;;20.80;81.90;;;;;;5064910;28;20032;-62
2022/06/18 01:45:16;;;;;;;5.13;3.38;;;20.80;82.40;;;;;;5099589;28;20110;-62
2022/06/18 01:48:20;;;;;;;6.25;3.53;;;20.80;82.60;;;;;;5064989;28;20021;-62
2022/06/18 01:51:00;;;;;;;5.30;3.20;;;20.80;82.70;;;;;;5064150;28;20052;-61
2022/06/18 01:53:35;;;;;;;4.35;3.70;;;20.80;82.40;;;;;;5066628;28;20506;-61
2022/06/18 01:56:06;;;;;;;5.43;3.30;;;20.80;82.00;;;;;;5065694;28;20048;-61
2022/06/18 01:58:38;;;;;;;5.45;2.80;;;20.80;82.10;;;;;;5065910;28;20033;-61
2022/06/18 02:01:07;;;;;;;7.32;3.03;;;20.80;81.90;;;;;;5066477;28;20025;-62
2022/06/18 02:03:33;;;;;;;5.57;3.47;;;20.80;81.80;;;;;;5065881;28;20024;-62
2022/06/18 02:06:00;;;;;;;5.38;3.58;;;20.90;82.60;;;;;;5062043;28;20029;-61
2022/06/18 02:08:25;;;;;;;7.35;3.95;;;20.80;82.20;;;;;;5067512;28;20024;-61
2022/06/18 02:11:03;;;;;;;7.57;4.05;;;20.80;82.70;;;;;;5068754;28;20580;-61
2022/06/18 02:13:35;;;;;;;6.53;4.22;;;20.80;82.60;;;;;;5067735;28;20110;-61
2022/06/18 02:16:07;;;;;;;8.88;4.20;;;20.80;83.20;;;;;;5069043;28;20056;-61
2022/06/18 02:18:34;;;;;;;3.92;3.22;;;20.70;83.30;;;;;;5069377;28;20029;-62
2022/06/18 02:21:05;;;;;;;5.40;3.80;;;20.70;83.60;;;;;;5075148;28;20090;-61
2022/06/18 02:23:31;;;;;;;5.90;3.70;;;20.70;83.60;;;;;;5081522;28;20537;-61
2022/06/18 02:25:57;;;;;;;5.65;4.28;;;20.60;83.80;;;;;;5075175;28;20028;-61
2022/06/18 02:28:29;;;;;;;8.55;4.35;;;20.60;83.90;;;;;;5067274;28;20487;-60
2022/06/18 02:30:58;;;;;;;7.97;4.20;;;20.60;84.00;;;;;;5068786;28;20480;-61
2022/06/18 02:33:32;;;;;;;8.50;3.67;;;20.60;83.80;;;;;;5070186;28;20151;-60
2022/06/18 02:39:38;;;;;;;6.18;3.45;;;20.70;83.40;;;;;;5061445;28;20082;-60
2022/06/18 02:42:17;;;;;;;6.30;3.45;;;20.70;83.00;;;;;;5070646;28;20024;-60
2022/06/18 02:44:45;;;;;;;4.82;3.30;;;20.80;83.00;;;;;;5069116;28;20529;-60
2022/06/18 02:47:12;;;;;;;4.85;3.35;;;20.80;82.80;;;;;;5066878;28;20036;-60
2022/06/18 02:49:43;;;;;;;4.15;3.25;;;20.80;82.50;;;;;;5068171;28;20082;-60
2022/06/18 02:52:10;;;;;;;8.00;3.75;;;20.80;82.20;;;;;;5069102;28;20092;-61
2022/06/18 02:54:36;;;;;;;4.47;3.53;;;20.90;82.20;;;;;;5068666;28;20040;-60
2022/06/18 02:57:08;;;;;;;7.90;3.60;;;20.90;82.20;;;;;;5070260;28;20532;-60
2022/06/18 02:59:33;;;;;;;5.82;3.25;;;20.90;82.10;;;;;;5069355;28;20029;-60
2022/06/18 03:01:59;;;;;;;3.08;2.67;;;20.90;81.90;;;;;;5069087;28;20099;-60
2022/06/18 03:04:24;;;;;;;3.80;2.75;;;20.90;81.50;;;;;;5059586;28;20027;-60
2022/06/18 03:06:50;;;;;;;3.75;2.75;;;20.90;81.20;;;;;;5068115;28;20020;-61
2022/06/18 03:09:15;;;;;;;3.60;2.80;;;21.00;80.90;;;;;;5069528;28;20033;-60
2022/06/18 03:14:25;;;;;;;4.28;2.90;;;21.00;80.60;;;;;;5068807;28;20036;-61
2022/06/18 03:16:50;;;;;;;4.03;3.00;;;20.90;80.40;;;;;;5065526;28;20021;-60
2022/06/18 03:19:37;;;;;;;5.00;3.45;;;20.90;80.40;;;;;;5069591;28;20365;-61
2022/06/18 03:22:08;;;;;;;4.20;3.22;;;20.90;80.20;;;;;;5065243;28;20111;-61
2022/06/18 03:24:34;;;;;;;5.60;3.25;;;20.90;80.40;;;;;;5066770;28;20074;-61
2022/06/18 03:27:00;;;;;;;4.63;3.10;;;20.90;81.10;;;;;;5069808;28;20081;-61
2022/06/18 03:29:26;;;;;;;4.00;3.33;;;20.90;80.40;;;;;;5069401;28;20028;-61
2022/06/18 03:31:51;;;;;;;3.38;3.05;;;20.90;80.40;;;;;;5065149;28;20520;-61
2022/06/18 03:34:17;;;;;;;8.95;4.32;;;20.80;80.40;;;;;;5069171;28;20017;-61
2022/06/18 03:36:42;;;;;;;5.95;4.30;;;20.80;80.80;;;;;;5067494;28;20025;-60
2022/06/18 03:39:09;;;;;;;5.03;4.00;;;20.70;81.00;;;;;;5068267;28;20468;-61
2022/06/18 03:41:35;;;;;;;6.63;4.72;;;20.70;81.20;;;;;;5065353;28;20035;-61
2022/06/18 03:44:00;;;;;;;9.55;5.20;;;20.70;81.40;;;;;;5069524;28;20020;-61
2022/06/18 03:46:26;;;;;;;7.35;4.85;;;20.60;81.70;;;;;;5067677;28;20025;-61
2022/06/18 03:49:02;;;;;;;5.22;4.40;;;20.60;81.90;;;;;;5068336;28;20071;-61
2022/06/18 03:51:29;;;;;;;6.35;3.83;;;20.60;81.90;;;;;;5063872;28;20033;-61
2022/06/18 03:53:55;;;;;;;5.85;4.55;;;20.50;81.90;;;;;;5078718;28;20020;-60
2022/06/18 03:56:24;;;;;;;4.85;3.90;;;20.50;82.00;;;;;;5080720;28;20049;-61
2022/06/18 03:58:50;;;;;;;4.63;3.60;;;20.50;82.00;;;;;;5069964;28;20024;-61
2022/06/18 04:01:19;;;;;;;6.47;4.60;;;20.50;82.00;;;;;;5067117;28;20339;-61
2022/06/18 04:03:45;;;;;;;5.15;4.18;;;20.50;82.00;;;;;;5071781;28;20019;-61
2022/06/18 04:06:11;;;;;;;5.00;4.25;;;20.50;82.70;;;;;;5069780;28;20017;-61
2022/06/18 04:08:36;;;;;;;6.72;4.68;;;20.50;82.00;;;;;;5069961;28;20476;-61
2022/06/18 04:11:02;;;;;;;8.27;4.28;;;20.60;82.00;;;;;;5069042;28;20032;-61
2022/06/18 04:13:28;;;;;;;5.53;4.43;;;20.50;82.00;;;;;;5071182;28;20028;-61
2022/06/18 04:15:55;;;;;;;9.98;5.57;;;20.60;82.10;;;;;;5070854;28;20048;-60
2022/06/18 04:18:21;;;;;;;7.63;6.00;;;20.60;82.40;;;;;;5069520;28;20052;-60
2022/06/18 04:20:46;;;;;;;6.85;5.40;;;20.50;82.80;;;;;;5067088;28;20071;-61
2022/06/18 04:23:15;;;;;;;7.55;5.60;;;20.50;83.20;;;;;;5069449;28;20108;-61
2022/06/18 04:25:40;;;;;;;7.28;5.75;;;20.40;84.10;;;;;;5066839;28;20023;-60
2022/06/18 04:28:06;;;;;;;7.63;6.13;;;20.40;83.70;;;;;;5068644;28;20096;-61
2022/06/18 04:30:33;;;;;;;8.70;5.32;;;20.30;83.80;;;;;;5069895;28;20028;-61
2022/06/18 04:32:59;;;;;;;6.32;5.22;;;20.40;84.00;;;;;;5067992;28;20082;-60
2022/06/18 04:35:25;;;;;;;6.78;4.88;;;20.40;83.90;;;;;;5065016;28;20048;-60
2022/06/18 04:37:50;;;;;;;6.82;4.93;;;20.50;83.80;;;;;;5067873;28;20089;-61
2022/06/18 04:40:23;;;;;;;7.70;5.10;;;20.50;83.60;;;;;;5068707;28;20029;-61
2022/06/18 04:42:49;;;;;;;7.47;4.90;;;20.50;83.50;;;;;;5069161;28;20028;-60
2022/06/18 04:45:14;;;;;;;7.38;5.75;;;20.50;83.70;;;;;;5065884;28;20016;-61
2022/06/18 04:47:40;;;;;;;5.93;5.32;;;20.50;83.90;;;;;;5065489;28;20491;-61
2022/06/18 04:50:13;;;;;;;7.03;5.90;;;20.50;84.00;;;;;;5062228;28;20025;-61
2022/06/18 04:52:39;;;;;;;8.85;5.60;;;20.60;84.10;;;;;;5065808;28;20373;-61
2022/06/18 04:55:05;;;;;;;6.63;4.78;;;20.60;84.00;;;;;;5052181;28;20500;-61
2022/06/18 04:57:30;;;;;;;7.00;5.32;;;20.60;83.80;;;;;;5065809;28;20028;-60
2022/06/18 04:59:56;;;;;;;5.28;4.65;;;20.70;84.00;;;;;;5061396;28;20040;-60
2022/06/18 05:02:29;;;;;;;4.70;4.28;;;20.70;83.80;;;;;;5066784;28;20032;-60
2022/06/18 05:04:55;;;;;;;4.53;4.07;;;20.80;83.60;;;;;;5051776;28;20028;-61
2022/06/18 05:07:21;;;;;;;8.05;4.03;;;20.90;83.50;;;;;;5074497;28;20029;-61
2022/06/18 05:09:48;;;;;;;5.22;4.05;;;21.00;83.50;;;;;;5062924;28;20106;-61
2022/06/18 05:12:14;;;;;;;5.55;4.00;;;21.00;83.30;;;;;;5066825;28;20086;-60
2022/06/18 05:14:40;;;;;;;5.70;4.22;;;21.10;83.30;;;;;;5052412;28;20036;-60
2022/06/18 05:17:09;;;;;;;4.75;4.20;;;21.20;83.40;;;;;;5068900;28;20009;-60
2022/06/18 05:19:35;;;;;;;4.85;4.35;;;21.20;83.40;;;;;;5053014;28;20025;-61
2022/06/18 05:22:01;;;;;;;5.22;4.25;;;21.30;83.30;;;;;;5053008;28;20471;-60
2022/06/18 05:24:27;;;;;;;6.82;4.63;;;21.30;83.10;;;;;;5053200;28;20537;-60
2022/06/18 05:26:56;;;;;;;8.40;4.72;;;21.30;83.00;;;;;;5054471;28;20096;-60
2022/06/18 05:29:22;;;;;;;5.55;4.70;;;21.40;83.10;;;;;;5061526;28;20526;-60
2022/06/18 05:31:48;;;;;;;5.38;4.35;;;21.40;83.00;;;;;;5068544;28;20088;-61
2022/06/18 05:34:13;;;;;;;6.85;5.45;;;21.40;83.00;;;;;;5080807;28;20031;-61
2022/06/18 05:36:39;;;;;;;5.90;5.20;;;21.40;83.00;;;;;;5057244;28;20025;-61
2022/06/18 05:39:06;;;;;;;6.80;5.63;;;21.50;82.90;;;;;;5067773;28;20025;-60
2022/06/18 05:41:33;;;;;;;5.55;4.50;;;21.50;82.80;;;;;;5069845;28;20086;-61
2022/06/18 05:43:58;;;;;;;7.68;5.80;;;21.60;82.80;;;;;;5070540;28;20025;-60
2022/06/18 05:46:43;;;;;;;9.95;5.97;;;21.60;82.60;;;;;;5072318;28;20032;-61
2022/06/18 05:49:09;;;;;;;8.88;5.65;;;21.60;82.70;;;;;;5067432;28;20027;-61
2022/06/18 05:51:35;;;;;;;6.88;4.90;;;21.70;82.80;;;;;;5060490;28;20071;-61
2022/06/18 05:54:00;;;;;;;8.70;6.88;;;21.70;82.70;;;;;;5075047;28;20075;-61
2022/06/18 05:56:26;;;;;;;9.70;6.55;;;21.80;82.90;;;;;;5074244;28;20055;-60
2022/06/18 05:58:51;;;;;;;6.97;6.25;;;21.70;82.70;;;;;;5075756;28;20484;-60
2022/06/18 06:01:17;;;;;;;7.50;6.10;;;21.70;82.70;;;;;;5066776;28;20028;-61
2022/06/18 06:03:42;;;;;;;7.07;5.18;;;21.80;82.80;;;;;;5069308;28;20021;-60
2022/06/18 06:06:08;;;;;;;8.93;6.63;;;21.80;82.60;;;;;;5067385;28;20028;-61
2022/06/18 06:08:34;;;;;;;8.30;6.40;;;21.80;82.70;;;;;;5074770;28;20058;-60
2022/06/18 06:13:43;;;;;;;13.48;7.50;;;21.90;82.80;;;;;;5066966;28;20031;-61
2022/06/18 06:16:15;;;;;;;7.95;5.47;;;22.00;82.60;;;;;;5066688;28;20017;-61
2022/06/18 06:18:40;;;;;;;11.82;6.25;;;22.10;82.60;;;;;;5076580;28;20381;-60
2022/06/18 06:21:06;;;;;;;9.05;5.97;;;22.10;82.70;;;;;;5076579;28;20028;-60
2022/06/18 06:23:31;;;;;;;8.85;5.15;;;22.10;82.70;;;;;;5078578;28;20025;-61
2022/06/18 06:25:57;;;;;;;6.00;5.18;;;22.20;82.60;;;;;;5074970;28;20025;-61
2022/06/18 06:28:28;;;;;;;6.25;4.00;;;22.20;82.40;;;;;;5074536;28;20488;-60
2022/06/18 06:30:55;;;;;;;8.10;5.75;;;22.30;82.10;;;;;;5073792;28;20099;-61
2022/06/18 06:33:21;;;;;;;6.90;5.35;;;22.40;82.00;;;;;;5072443;28;20110;-60
2022/06/18 06:35:47;;;;;;;8.10;5.50;;;22.40;81.70;;;;;;5073837;28;20484;-61
2022/06/18 06:38:13;;;;;;;6.50;4.65;;;22.50;81.30;;;;;;5072210;28;20021;-60
2022/06/18 06:40:42;;;;;;;8.90;5.05;;;22.50;81.00;;;;;;5073423;28;20036;-61
2022/06/18 06:43:10;;;;;;;7.18;4.55;;;22.60;80.80;;;;;;5076540;28;20027;-61
2022/06/18 06:45:35;;;;;;;8.00;4.82;;;22.70;80.70;;;;;;5073733;28;20042;-60
2022/06/18 06:48:01;;;;;;;6.85;4.78;;;22.70;80.50;;;;;;5078407;28;20066;-61
2022/06/18 06:50:29;;;;;;;7.43;4.55;;;22.80;80.40;;;;;;5083474;28;20028;-61
2022/06/18 06:52:55;;;;;;;8.18;4.40;;;22.90;80.00;;;;;;5081859;28;20115;-60
2022/06/18 06:58:16;;;;;;;9.18;5.28;;;23.00;79.50;;;;;;5077069;28;20031;-60
2022/06/18 07:00:46;;;;;;;7.47;4.88;;;23.10;79.50;;;;;;5076723;28;20504;-61
2022/06/18 07:03:13;;;;;;;7.43;5.28;;;23.10;79.10;;;;;;5072828;28;20335;-60
2022/06/18 07:05:39;;;;;;;13.30;4.95;;;23.20;79.10;;;;;;5070535;28;20028;-60
2022/06/18 07:08:05;;;;;;;10.07;5.63;;;23.20;79.20;;;;;;5075095;28;20024;-61
2022/06/18 07:10:31;;;;;;;10.10;5.00;;;23.30;79.10;;;;;;5068995;28;20533;-60
2022/06/18 07:12:56;;;;;;;5.68;4.28;;;23.40;78.80;;;;;;5075099;28;20139;-60
2022/06/18 07:15:22;;;;;;;7.95;6.18;;;23.40;78.50;;;;;;5074639;28;20107;-61
2022/06/18 07:17:47;;;;;;;7.57;5.38;;;23.40;78.80;;;;;;5077407;28;20158;-60
2022/06/18 07:20:16;;;;;;;7.55;4.80;;;23.40;78.70;;;;;;5076927;28;20060;-60
2022/06/18 07:22:42;;;;;;;6.55;4.40;;;23.50;78.60;;;;;;5081915;28;20594;-60
2022/06/18 07:25:08;;;;;;;9.60;4.38;;;23.60;78.40;;;;;;5078508;28;20115;-60
2022/06/18 07:27:35;;;;;;;9.18;4.68;;;23.60;78.20;;;;;;5080285;28;20021;-60
2022/06/18 07:30:01;;;;;;;5.97;4.30;;;23.80;78.00;;;;;;5071553;28;20107;-60
2022/06/18 07:32:26;;;;;;;6.82;4.57;;;23.80;77.90;;;;;;5069307;28;20532;-60
2022/06/18 07:34:55;;;;;;;11.57;4.80;;;23.90;77.80;;;;;;5072964;28;20693;-60
2022/06/18 07:37:21;;;;;;;8.40;5.15;;;24.00;77.70;;;;;;5081501;28;20430;-60
2022/06/18 07:39:47;;;;;;;7.63;4.40;;;24.10;77.40;;;;;;5083112;28;20124;-60
2022/06/18 07:42:16;;;;;;;11.00;5.28;;;24.20;77.30;;;;;;5078679;28;20016;-60
2022/06/18 07:44:41;;;;;;;8.43;5.03;;;24.20;77.40;;;;;;5072304;28;20027;-60
2022/06/18 07:47:12;;;;;;;6.75;4.40;;;24.30;77.30;;;;;;5073969;28;20384;-60
2022/06/18 07:49:37;;;;;;;9.77;4.40;;;24.30;77.20;;;;;;5071632;28;20020;-60
2022/06/18 07:52:03;;;;;;;12.45;5.50;;;24.40;77.00;;;;;;5071630;28;20028;-60
2022/06/18 07:54:29;;;;;;;8.77;5.50;;;24.50;76.80;;;;;;5070491;28;20800;-61
2022/06/18 07:56:54;;;;;;;9.75;6.32;;;24.50;76.60;;;;;;5071998;28;20535;-60
2022/06/18 07:59:20;;;;;;;6.90;3.88;;;24.60;76.40;;;;;;5109500;27;20023;-60
2022/06/18 08:01:46;;;;;;;10.07;4.90;;;24.70;76.30;;;;;;5081425;28;20048;-60
2022/06/18 08:04:12;;;;;;;9.48;5.05;;;24.70;76.10;;;;;;5072684;28;20048;-60
2022/06/18 08:06:38;;;;;;;10.07;5.00;;;24.80;76.10;;;;;;5078004;28;20042;-60
2022/06/18 08:09:03;;;;;;;8.68;4.88;;;24.90;75.90;;;;;;5071059;28;20532;-60
2022/06/18 08:11:29;;;;;;;8.23;4.32;;;24.90;75.70;;;;;;5072604;28;20508;-60
2022/06/18 08:13:57;;;;;;;6.57;4.35;;;25.00;75.50;;;;;;5071195;28;20035;-60
2022/06/18 08:16:22;;;;;;;8.10;4.88;;;25.10;75.30;;;;;;5076614;28;20111;-61
2022/06/18 08:18:48;;;;;;;8.13;5.43;;;25.20;75.30;;;;;;5072514;28;20451;-60
2022/06/18 08:21:27;;;;;;;7.20;4.32;;;25.20;75.20;;;;;;5073845;28;20037;-60
2022/06/18 08:23:57;;;;;;;11.43;4.70;;;25.30;75.00;;;;;;5068982;28;20029;-60
2022/06/18 08:26:29;;;;;;;12.48;5.00;;;25.40;74.90;;;;;;5076279;28;20016;-60
2022/06/18 08:29:12;;;;;;;7.10;4.45;;;25.40;74.60;;;;;;5078664;28;20024;-61
2022/06/18 08:31:37;;;;;;;8.43;4.55;;;25.50;74.40;;;;;;5072571;28;20022;-60
2022/06/18 08:34:03;;;;;;;9.32;5.10;;;25.50;74.10;;;;;;5072745;28;20032;-60
2022/06/18 08:36:29;;;;;;;6.40;3.75;;;25.60;73.90;;;;;;5057899;28;20117;-61
2022/06/18 08:38:55;;;;;;;7.60;4.18;;;25.60;73.90;;;;;;5076415;28;20525;-61
2022/06/18 08:42:02;;;;;;;9.88;5.00;;;25.70;73.90;;;;;;5068624;28;20024;-60
2022/06/18 08:44:51;;;;;;;7.53;3.88;;;25.90;73.60;;;;;;5070753;28;20023;-60
2022/06/18 08:47:17;;;;;;;;;;;26.00;73.40;;;;;;5069160;28;20025;-60
2022/06/18 08:50:27;;;;;;;5.90;4.18;;;25.90;73.50;;;;;;5071881;28;20390;-60
2022/06/18 08:53:55;;;;;;;6.97;3.60;;;26.00;73.10;;;;;;5061391;28;20026;-60
2022/06/18 08:56:27;;;;;;;;;;;26.20;72.80;;;;;;5056349;28;20138;-60
2022/06/18 08:59:33;;;;;;;;;;;;;;;;;;;;;
2022/06/18 09:02:24;;;;;;;7.72;3.80;;;26.20;72.20;;;;;;5076328;28;20024;-60
2022/06/18 09:05:08;;;;;;;9.30;4.43;;;26.30;72.30;;;;;;5087773;28;20279;-60
2022/06/18 09:08:10;;;;;;;6.90;4.07;;;26.50;72.20;;;;;;5071322;28;20112;-61
2022/06/18 09:10:54;;;;;;;10.48;4.25;;;26.60;72.00;;;;;;5067226;28;20122;-61
2022/06/18 09:13:43;;;;;;;9.93;5.05;;;26.60;72.10;;;;;;5067034;28;20496;-60
2022/06/18 09:16:13;;;;;;;6.65;4.50;;;26.70;72.10;;;;;;5059500;28;20044;-60
2022/06/18 09:18:45;;;;;;;6.53;4.03;;;26.80;72.20;;;;;;5069446;28;20039;-60
2022/06/18 09:21:22;;;;;;;10.38;4.97;;;26.90;71.70;;;;;;5060576;28;20056;-60
2022/06/18 09:23:59;;;;;;;7.90;4.60;;;27.00;71.30;;;;;;5061501;28;20013;-60
2022/06/18 09:26:32;;;;;;;8.32;4.38;;;27.10;71.30;;;;;;5061644;28;20020;-60
2022/06/18 09:29:08;;;;;;;9.27;3.90;;;27.20;71.30;;;;;;5074531;28;20025;-60
2022/06/18 09:32:08;;;;;;;7.40;3.50;;;27.30;71.10;;;;;;5075738;28;20040;-61
2022/06/18 09:34:43;;;;;;;7.75;4.20;;;27.40;70.70;;;;;;5069106;28;20082;-61
2022/06/18 09:37:19;;;;;;;11.43;5.40;;;27.50;70.60;;;;;;5081858;28;20027;-61
2022/06/18 09:39:50;;;;;;;10.18;5.57;;;27.70;70.40;;;;;;5074704;28;20024;-60
2022/06/18 09:42:33;;;;;;;7.15;3.90;;;27.60;69.90;;;;;;5081967;28;20086;-60
2022/06/18 09:45:16;;;;;;;8.65;4.68;;;27.70;69.90;;;;;;5083321;28;20049;-60
2022/06/18 09:47:55;;;;;;;8.50;5.00;;;27.70;69.90;;;;;;5075465;28;20139;-60
2022/06/18 09:50:32;;;;;;;8.23;4.05;;;27.80;69.70;;;;;;5074485;28;20086;-60
2022/06/18 09:53:11;;;;;;;6.93;3.58;;;27.80;69.40;;;;;;5074346;28;20044;-60
2022/06/18 09:55:40;;;;;;;7.32;3.35;;;28.00;69.30;;;;;;5074512;28;20052;-61
2022/06/18 09:58:46;;;;;;;7.88;4.53;;;28.10;68.60;;;;;;5072852;28;20059;-60
2022/06/18 10:01:19;;;;;;;8.18;3.67;;;28.30;68.10;;;;;;5082983;28;20060;-60
2022/06/18 10:09:38;;;;;;;5.10;3.15;;;28.50;67.70;;;;;;5084795;28;20036;-61
2022/06/18 10:12:23;;;;;;;6.18;2.92;;;28.70;66.80;;;;;;5073156;28;20107;-60
2022/06/18 10:14:55;;;;;;;5.80;2.75;;;28.80;65.80;;;;;;5062645;28;20021;-60
2022/06/18 10:17:29;;;;;;;7.95;3.42;;;28.80;65.40;;;;;;5080658;28;20110;-61
2022/06/18 10:20:13;;;;;;;5.43;3.30;;;28.90;64.90;;;;;;5077403;28;20483;-60
2022/06/18 10:23:04;;;;;;;5.45;3.05;;;29.00;64.50;;;;;;5084500;28;20472;-60
2022/06/18 10:25:42;;;;;;;8.82;3.17;;;29.10;64.30;;;;;;5059493;28;20025;-60
2022/06/18 10:28:38;;;;;;;6.50;3.00;;;29.10;63.60;;;;;;5074088;28;20465;-61
2022/06/18 10:31:25;;;;;;;6.53;3.53;;;29.20;63.20;;;;;;5072496;28;20028;-60
2022/06/18 10:34:13;;;;;;;7.47;3.10;;;29.30;63.00;;;;;;5084142;28;20498;-61
2022/06/18 10:37:06;;;;;;;5.95;2.90;;;29.40;62.70;;;;;;5080887;28;20034;-61
2022/06/18 10:39:55;;;;;;;8.63;3.20;;;29.50;62.30;;;;;;5084337;28;20031;-61
2022/06/18 10:42:41;;;;;;;7.93;2.85;;;29.50;62.10;;;;;;5076921;28;20025;-60
2022/06/18 10:45:30;;;;;;;7.53;3.40;;;29.60;62.00;;;;;;5058646;28;20132;-61
2022/06/18 10:47:56;;;;;;;8.63;3.90;;;29.70;61.60;;;;;;5058180;28;20071;-61
2022/06/18 10:50:23;;;;;;;4.43;3.15;;;29.80;61.70;;;;;;5078430;28;20392;-61
2022/06/18 10:53:02;;;;;;;8.52;2.75;;;29.90;61.60;;;;;;5083314;28;20040;-61
2022/06/18 10:55:28;;;;;;;8.20;3.08;;;30.10;61.70;;;;;;5074483;28;20093;-61
2022/06/18 10:58:05;;;;;;;7.53;3.00;;;30.10;61.40;;;;;;5073622;28;20028;-61
2022/06/18 11:00:30;;;;;;;7.60;2.88;;;30.20;60.90;;;;;;5077416;28;20025;-61
2022/06/18 11:02:59;;;;;;;7.80;3.22;;;30.20;60.50;;;;;;5082807;28;20020;-61
2022/06/18 11:05:30;;;;;;;5.85;2.65;;;30.20;60.30;;;;;;5081166;28;20464;-61
2022/06/18 11:07:59;;;;;;;4.97;2.40;;;30.40;60.20;;;;;;5076091;28;20142;-61
2022/06/18 11:10:43;;;;;;;6.10;2.63;;;30.50;60.20;;;;;;5076820;28;20035;-61
2022/06/18 11:13:40;;;;;;;5.20;2.28;;;30.70;59.70;;;;;;5092231;28;20032;-61
2022/06/18 11:16:26;;;;;;;7.78;2.38;;;30.90;59.60;;;;;;5058871;28;20039;-61
2022/06/18 11:19:03;;;;;;;7.93;2.75;;;30.90;59.10;;;;;;5057494;28;20033;-61
2022/06/18 11:21:43;;;;;;;7.57;2.67;;;30.90;57.90;;;;;;5053858;28;20021;-61
2022/06/18 11:24:12;;;;;;;8.95;2.63;;;30.90;57.00;;;;;;5072242;28;20033;-61
2022/06/18 11:26:56;;;;;;;6.82;2.63;;;30.90;57.10;;;;;;5071073;28;20078;-61
2022/06/18 11:29:32;;;;;;;8.43;2.50;;;31.00;57.00;;;;;;5072155;28;20403;-61
2022/06/18 11:32:00;;;;;;;6.07;2.20;;;31.10;56.30;;;;;;5069397;28;20024;-61
2022/06/18 11:34:29;;;;;;;8.38;2.88;;;31.30;56.40;;;;;;5071680;28;20039;-61
2022/06/18 11:36:59;;;;;;;6.07;2.38;;;31.50;56.10;;;;;;5079221;28;20022;-61
2022/06/18 11:39:38;;;;;;;4.35;2.40;;;31.70;55.80;;;;;;5079633;28;20028;-61
2022/06/18 11:42:29;;;;;;;2.70;1.65;;;31.80;55.10;;;;;;5069573;28;20016;-61
2022/06/18 11:45:19;;;;;;;6.72;2.78;;;32.00;54.90;;;;;;5057452;28;20021;-61
2022/06/18 11:47:51;;;;;;;6.25;2.33;;;32.20;54.80;;;;;;5056749;28;20095;-61
2022/06/18 11:50:25;;;;;;;4.28;2.17;;;32.30;54.80;;;;;;5056774;28;20381;-61
2022/06/18 11:53:17;;;;;;;5.55;2.53;;;32.40;54.30;;;;;;5073311;28;20089;-61
2022/06/18 11:55:46;;;;;;;6.20;2.28;;;32.50;54.30;;;;;;5073974;28;20063;-61
2022/06/18 11:58:39;;;;;;;6.95;2.83;;;32.60;54.20;;;;;;5079966;28;20016;-61
2022/06/18 12:01:13;;;;;;;9.98;2.80;;;32.70;54.10;;;;;;5077094;28;20379;-61
2022/06/18 12:03:51;;;;;;;4.82;2.53;;;32.90;53.80;;;;;;5080686;28;20099;-61
2022/06/18 12:06:28;;;;;;;7.28;2.70;;;33.00;53.50;;;;;;5072164;28;20396;-61
2022/06/18 12:08:54;;;;;;;7.47;2.90;;;33.10;53.30;;;;;;5079820;28;20025;-61
2022/06/18 12:11:31;;;;;;;4.28;2.00;;;33.20;53.10;;;;;;5073408;28;20036;-61
2022/06/18 12:14:11;;;;;;;5.97;2.13;;;33.40;52.70;;;;;;5071270;28;20021;-61
2022/06/18 12:16:54;;;;;;;6.97;3.03;;;33.50;52.50;;;;;;5072453;28;20024;-61
2022/06/18 12:19:29;;;;;;;7.93;2.65;;;33.60;52.00;;;;;;5074997;28;20028;-61
2022/06/18 12:22:19;;;;;;;4.00;2.28;;;33.70;51.80;;;;;;5068424;28;20079;-61
2022/06/18 12:24:57;;;;;;;7.75;2.78;;;33.90;51.70;;;;;;5071409;28;20054;-61
2022/06/18 12:27:26;;;;;;;5.38;2.33;;;34.10;51.30;;;;;;5073103;28;20025;-62
2022/06/18 12:30:26;;;;;;;5.57;2.72;;;34.30;51.10;;;;;;5075519;28;20392;-61
2022/06/18 12:32:55;;;;;;;5.70;2.30;;;34.50;50.30;;;;;;5059067;28;20056;-61
2022/06/18 12:35:39;;;;;;;4.93;2.22;;;34.70;50.20;;;;;;5072974;28;20115;-61
2022/06/18 12:38:20;;;;;;;4.85;1.95;;;34.80;50.30;;;;;;5073619;28;20021;-61
2022/06/18 12:40:45;;;;;;;7.68;2.70;;;34.80;50.40;;;;;;5074626;28;20339;-61
2022/06/18 12:43:19;;;;;;;8.52;3.10;;;35.00;50.40;;;;;;5066754;28;20025;-61
2022/06/18 12:45:53;;;;;;;6.30;2.28;;;35.10;49.70;;;;;;5054630;28;20024;-62
2022/06/18 12:49:20;;;;;;;6.88;2.38;;;35.10;49.70;;;;;;5074334;28;20051;-61
2022/06/18 12:51:53;;;;;;;4.13;2.15;;;35.20;49.50;;;;;;5063573;28;20032;-62
2022/06/18 12:54:35;;;;;;;6.43;2.40;;;35.30;49.40;;;;;;5070162;28;20047;-61
2022/06/18 12:57:24;;;;;;;6.57;2.25;;;35.40;49.20;;;;;;5072998;28;20052;-62
2022/06/18 13:00:08;;;;;;;4.93;2.38;;;35.50;49.10;;;;;;5080731;28;20032;-61
2022/06/18 13:03:02;;;;;;;6.93;2.30;;;35.70;48.90;;;;;;5078504;28;20056;-61
2022/06/18 13:05:52;;;;;;;;;;;;;;;;;;;;;
2022/06/18 13:08:27;;;;;;;8.13;2.35;;;35.90;48.10;;;;;;5064991;28;20036;-61
2022/06/18 13:11:27;;;;;;;6.32;2.65;;;35.90;48.20;;;;;;5078043;28;20356;-61
2022/06/18 13:14:22;;;;;;;8.90;2.90;;;36.10;48.00;;;;;;5069268;28;20071;-62
2022/06/18 13:16:58;;;;;;;4.63;2.72;;;36.20;48.70;;;;;;5055874;28;20021;-62
2022/06/18 13:19:34;;;;;;;6.93;2.78;;;36.30;47.80;;;;;;5063499;28;20542;-62
2022/06/18 13:22:01;;;;;;;5.32;2.50;;;36.40;47.60;;;;;;5057181;28;20023;-62
2022/06/18 13:30:28;;;;;;;5.13;2.40;;;36.60;47.30;;;;;;5067726;28;20070;-62
2022/06/18 13:33:00;;;;;;;5.85;3.08;;;36.70;47.20;;;;;;5060280;28;20477;-62
2022/06/18 13:35:49;;;;;;;6.15;2.92;;;36.60;46.90;;;;;;5059312;28;20021;-62
2022/06/18 13:38:31;;;;;;;7.10;2.88;;;36.70;46.40;;;;;;5059514;28;20017;-62
2022/06/18 13:41:33;;;;;;;7.22;2.50;;;36.80;46.50;;;;;;5062039;28;20029;-62